createdAt,value
2018-08-28T00:01:33.630Z,17.93
2018-08-28T00:04:01.820Z,17.75
2018-08-28T00:06:29.650Z,17.60
2018-08-28T00:08:57.502Z,17.75
2018-08-28T00:11:25.228Z,17.68
2018-08-28T00:13:52.823Z,17.73
2018-08-28T00:16:20.494Z,17.63
2018-08-28T00:18:48.031Z,17.60
2018-08-28T00:21:15.582Z,17.49
2018-08-28T00:23:43.143Z,17.53
2018-08-28T00:26:10.682Z,17.48
2018-08-28T00:28:38.233Z,17.56
2018-08-28T00:31:05.747Z,17.66
2018-08-28T00:33:33.451Z,17.55
2018-08-28T00:36:01.006Z,17.61
2018-08-28T00:38:28.698Z,17.54
2018-08-28T00:40:56.387Z,17.66
2018-08-28T00:43:23.891Z,17.76
2018-08-28T00:45:51.636Z,17.75
2018-08-28T00:48:19.187Z,17.69
2018-08-28T00:50:46.694Z,17.66
2018-08-28T00:53:14.313Z,17.60
2018-08-28T00:55:41.850Z,17.58
2018-08-28T00:58:09.390Z,17.65
2018-08-28T01:00:36.950Z,17.72
2018-08-28T01:03:04.461Z,17.59
2018-08-28T01:05:32.007Z,17.61
2018-08-28T01:07:59.519Z,17.82
2018-08-28T01:10:27.185Z,17.78
2018-08-28T01:12:54.695Z,17.86
2018-08-28T01:15:22.203Z,17.69
2018-08-28T01:17:49.874Z,17.63
2018-08-28T01:20:17.387Z,17.79
2018-08-28T01:22:46.914Z,17.62
2018-08-28T01:25:14.463Z,17.61
2018-08-28T01:27:42.001Z,17.57
2018-08-28T01:30:09.538Z,17.51
2018-08-28T01:32:37.094Z,17.57
2018-08-28T01:35:04.646Z,17.51
2018-08-28T01:37:32.279Z,17.61
2018-08-28T01:40:00.044Z,17.65
2018-08-28T01:42:27.596Z,17.68
2018-08-28T01:44:55.273Z,17.73
2018-08-28T01:47:22.845Z,17.47
2018-08-28T01:49:50.355Z,17.66
2018-08-28T01:52:17.899Z,17.59
2018-08-28T01:54:45.467Z,17.66
2018-08-28T01:57:12.973Z,17.56
2018-08-28T01:59:40.601Z,17.57
2018-08-28T02:02:08.134Z,17.56
2018-08-28T02:04:35.685Z,17.36
2018-08-28T02:07:03.234Z,17.48
2018-08-28T02:09:30.792Z,17.46
2018-08-28T02:11:58.302Z,17.47
2018-08-28T02:14:25.855Z,17.53
2018-08-28T02:16:53.371Z,17.48
2018-08-28T02:19:20.919Z,17.52
2018-08-28T02:21:48.450Z,17.43
2018-08-28T02:24:16.010Z,17.55
2018-08-28T02:26:43.550Z,17.38
2018-08-28T02:29:11.112Z,17.46
2018-08-28T02:31:38.843Z,17.46
2018-08-28T02:34:06.374Z,17.23
2018-08-28T02:36:33.946Z,17.31
2018-08-28T02:39:01.508Z,17.22
2018-08-28T02:41:29.014Z,17.33
2018-08-28T02:43:56.774Z,17.30
2018-08-28T02:46:24.297Z,17.20
2018-08-28T02:48:51.843Z,17.32
2018-08-28T02:51:19.409Z,17.33
2018-08-28T02:53:46.995Z,17.36
2018-08-28T02:56:14.678Z,17.25
2018-08-28T02:58:42.230Z,17.24
2018-08-28T03:01:09.824Z,17.23
2018-08-28T03:03:37.397Z,17.38
2018-08-28T03:06:04.950Z,17.54
2018-08-28T03:08:32.588Z,17.76
2018-08-28T03:11:00.102Z,17.50
2018-08-28T03:13:27.724Z,17.47
2018-08-28T03:15:55.275Z,17.44
2018-08-28T03:18:22.859Z,17.34
2018-08-28T03:20:50.463Z,17.35
2018-08-28T03:23:17.993Z,17.31
2018-08-28T03:25:45.743Z,17.24
2018-08-28T03:28:13.283Z,17.21
2018-08-28T03:30:41.337Z,17.31
2018-08-28T03:33:08.983Z,17.35
2018-08-28T03:35:36.566Z,17.46
2018-08-28T03:38:04.084Z,17.43
2018-08-28T03:40:31.677Z,17.47
2018-08-28T03:42:59.246Z,17.28
2018-08-28T03:45:26.759Z,17.25
2018-08-28T03:47:54.466Z,17.06
2018-08-28T03:50:22.092Z,17.28
2018-08-28T03:52:49.997Z,17.26
2018-08-28T03:55:17.591Z,17.13
2018-08-28T03:57:45.192Z,17.21
2018-08-28T04:00:12.877Z,17.15
2018-08-28T04:02:41.313Z,17.18
2018-08-28T04:05:09.027Z,17.08
2018-08-28T04:07:36.595Z,17.05
2018-08-28T04:10:04.112Z,16.95
2018-08-28T04:12:31.735Z,16.83
2018-08-28T04:14:59.330Z,16.78
2018-08-28T04:17:26.869Z,16.95
2018-08-28T04:19:54.477Z,17.17
2018-08-28T04:22:22.082Z,17.22
2018-08-28T04:24:49.617Z,17.14
2018-08-28T04:27:17.172Z,17.12
2018-08-28T04:29:44.691Z,17.06
2018-08-28T04:32:12.327Z,16.94
2018-08-28T04:34:39.861Z,17.04
2018-08-28T04:37:08.022Z,17.14
2018-08-28T04:39:35.801Z,17.01
2018-08-28T04:42:03.364Z,16.98
2018-08-28T04:44:30.876Z,17.04
2018-08-28T04:46:58.434Z,16.97
2018-08-28T04:49:26.029Z,16.97
2018-08-28T04:51:53.633Z,17.17
2018-08-28T04:54:21.409Z,17.24
2018-08-28T04:56:49.185Z,17.39
2018-08-28T04:59:16.742Z,17.53
2018-08-28T05:01:44.298Z,17.66
2018-08-28T05:04:11.829Z,17.75
2018-08-28T05:06:39.396Z,17.87
2018-08-28T05:09:07.044Z,17.70
2018-08-28T05:11:34.884Z,17.61
2018-08-28T05:14:02.438Z,17.67
2018-08-28T05:16:30.171Z,17.60
2018-08-28T05:18:57.749Z,17.56
2018-08-28T05:21:25.348Z,17.38
2018-08-28T05:23:52.977Z,17.47
2018-08-28T05:26:20.540Z,17.51
2018-08-28T05:28:48.091Z,17.48
2018-08-28T05:31:15.741Z,17.52
2018-08-28T05:33:43.329Z,17.61
2018-08-28T05:36:10.905Z,17.46
2018-08-28T05:38:38.458Z,17.30
2018-08-28T05:41:06.119Z,17.49
2018-08-28T05:43:33.842Z,17.37
2018-08-28T05:46:01.436Z,17.51
2018-08-28T05:48:30.975Z,17.34
2018-08-28T05:50:59.379Z,17.36
2018-08-28T05:53:27.068Z,17.15
2018-08-28T05:55:56.763Z,17.39
2018-08-28T05:58:24.277Z,17.61
2018-08-28T06:00:51.903Z,17.55
2018-08-28T06:03:19.590Z,17.77
2018-08-28T06:05:47.161Z,17.75
2018-08-28T06:08:14.704Z,17.67
2018-08-28T06:10:42.544Z,17.35
2018-08-28T06:13:10.092Z,17.51
2018-08-28T06:15:37.676Z,17.50
2018-08-28T06:18:05.243Z,17.27
2018-08-28T06:20:32.765Z,17.43
2018-08-28T06:23:00.391Z,17.45
2018-08-28T06:25:27.941Z,17.53
2018-08-28T06:27:55.452Z,17.59
2018-08-28T06:30:22.994Z,17.68
2018-08-28T06:32:50.577Z,17.74
2018-08-28T06:35:18.187Z,17.53
2018-08-28T06:37:45.765Z,17.57
2018-08-28T06:40:13.298Z,17.72
2018-08-28T06:42:41.515Z,17.41
2018-08-28T06:45:09.071Z,17.31
2018-08-28T06:47:36.709Z,17.39
2018-08-28T06:50:05.385Z,17.70
2018-08-28T06:52:32.942Z,17.60
2018-08-28T06:55:00.469Z,17.60
2018-08-28T06:57:28.118Z,17.72
2018-08-28T06:59:55.691Z,17.53
2018-08-28T07:02:23.288Z,17.73
2018-08-28T07:04:51.097Z,17.58
2018-08-28T07:07:18.729Z,17.80
2018-08-28T07:09:46.301Z,17.56
2018-08-28T07:12:14.034Z,17.62
2018-08-28T07:14:41.590Z,17.60
2018-08-28T07:17:09.157Z,17.64
2018-08-28T07:19:36.734Z,18.01
2018-08-28T07:22:04.239Z,17.99
2018-08-28T07:27:05.871Z,17.99
2018-08-28T07:29:33.458Z,18.19
2018-08-28T07:32:01.101Z,18.12
2018-08-28T07:34:28.675Z,18.06
2018-08-28T07:36:56.216Z,18.09
2018-08-28T07:39:23.890Z,18.04
2018-08-28T07:41:51.436Z,18.24
2018-08-28T07:44:19.012Z,18.14
2018-08-28T07:46:46.830Z,18.20
2018-08-28T07:49:14.368Z,18.04
2018-08-28T07:51:42.025Z,18.11
2018-08-28T07:54:09.801Z,18.29
2018-08-28T07:56:37.320Z,18.22
2018-08-28T07:59:05.038Z,18.10
2018-08-28T08:01:32.676Z,18.49
2018-08-28T08:04:00.228Z,18.56
2018-08-28T08:06:27.798Z,18.58
2018-08-28T08:08:55.429Z,18.57
2018-08-28T08:11:22.943Z,18.53
2018-08-28T08:13:50.667Z,18.82
2018-08-28T08:16:18.546Z,18.78
2018-08-28T08:18:46.087Z,18.84
2018-08-28T08:21:13.732Z,18.90
2018-08-28T08:23:41.260Z,19.13
2018-08-28T08:26:08.919Z,19.14
2018-08-28T08:28:36.630Z,19.09
2018-08-28T08:31:04.429Z,19.30
2018-08-28T08:33:32.036Z,19.23
2018-08-28T08:35:59.738Z,19.26
2018-08-28T08:38:27.314Z,19.08
2018-08-28T08:40:54.908Z,19.10
2018-08-28T08:43:22.650Z,19.02
2018-08-28T08:45:50.195Z,19.18
2018-08-28T08:48:17.809Z,19.20
2018-08-28T08:50:45.325Z,19.36
2018-08-28T08:53:14.025Z,19.42
2018-08-28T08:55:41.773Z,19.45
2018-08-28T08:58:09.566Z,19.35
2018-08-28T09:00:37.089Z,19.21
2018-08-28T09:03:04.813Z,19.38
2018-08-28T09:05:32.503Z,19.35
2018-08-28T09:08:00.069Z,19.27
2018-08-28T09:10:27.784Z,19.08
2018-08-28T09:12:55.499Z,19.43
2018-08-28T09:15:23.082Z,19.60
2018-08-28T09:17:50.801Z,19.58
2018-08-28T09:20:18.588Z,19.52
2018-08-28T09:22:46.127Z,19.68
2018-08-28T09:25:13.711Z,19.68
2018-08-28T09:27:41.375Z,19.80
2018-08-28T09:30:09.129Z,19.97
2018-08-28T09:32:36.766Z,20.04
2018-08-28T09:35:04.378Z,19.88
2018-08-28T09:37:31.902Z,20.01
2018-08-28T09:39:59.429Z,20.11
2018-08-28T09:42:27.009Z,20.15
2018-08-28T09:44:54.615Z,20.15
2018-08-28T09:47:22.191Z,20.24
2018-08-28T09:49:49.849Z,20.48
2018-08-28T09:52:17.687Z,20.45
2018-08-28T09:54:45.389Z,20.18
2018-08-28T09:57:12.906Z,20.31
2018-08-28T09:59:40.620Z,20.23
2018-08-28T10:02:09.359Z,20.18
2018-08-28T10:04:36.955Z,20.37
2018-08-28T10:07:04.758Z,20.35
2018-08-28T10:09:32.342Z,20.30
2018-08-28T10:12:01.037Z,20.24
2018-08-28T10:14:28.582Z,20.46
2018-08-28T10:16:56.145Z,20.63
2018-08-28T10:19:23.728Z,20.51
2018-08-28T10:21:51.485Z,20.75
2018-08-28T10:24:18.998Z,20.86
2018-08-28T10:26:46.533Z,20.97
2018-08-28T10:29:14.109Z,21.01
2018-08-28T10:31:41.707Z,20.81
2018-08-28T10:34:09.320Z,20.74
2018-08-28T10:36:37.067Z,20.93
2018-08-28T10:39:04.651Z,20.77
2018-08-28T10:41:32.197Z,20.86
2018-08-28T10:43:59.783Z,20.68
2018-08-28T10:46:27.474Z,20.93
2018-08-28T10:48:54.984Z,21.11
2018-08-28T10:51:22.510Z,21.16
2018-08-28T10:53:50.082Z,21.26
2018-08-28T10:56:18.658Z,21.25
2018-08-28T10:58:46.417Z,21.16
2018-08-28T11:01:13.936Z,21.04
2018-08-28T11:03:41.491Z,21.31
2018-08-28T11:06:09.123Z,21.33
2018-08-28T11:08:36.717Z,21.19
2018-08-28T11:11:04.245Z,21.18
2018-08-28T11:13:31.833Z,21.30
2018-08-28T11:15:59.434Z,21.32
2018-08-28T11:18:26.976Z,21.30
2018-08-28T11:20:54.531Z,21.47
2018-08-28T11:23:22.211Z,21.72
2018-08-28T11:25:49.856Z,21.85
2018-08-28T11:28:17.426Z,21.90
2018-08-28T11:30:45.044Z,21.98
2018-08-28T11:33:12.626Z,22.03
2018-08-28T11:35:40.262Z,21.77
2018-08-28T11:38:07.871Z,21.99
2018-08-28T11:40:35.541Z,22.01
2018-08-28T11:43:03.223Z,21.78
2018-08-28T11:45:30.793Z,22.00
2018-08-28T11:47:58.437Z,22.10
2018-08-28T11:50:26.049Z,22.05
2018-08-28T11:52:53.622Z,22.07
2018-08-28T11:55:21.136Z,22.14
2018-08-28T11:57:48.761Z,22.17
2018-08-28T12:00:16.290Z,22.05
2018-08-28T12:02:44.102Z,22.24
2018-08-28T12:05:11.820Z,22.33
2018-08-28T12:07:39.311Z,22.45
2018-08-28T12:10:08.902Z,22.41
2018-08-28T12:12:36.504Z,22.26
2018-08-28T12:15:04.142Z,22.52
2018-08-28T12:17:32.805Z,22.70
2018-08-28T12:20:00.418Z,22.66
2018-08-28T12:22:27.963Z,22.48
2018-08-28T12:24:55.565Z,22.60
2018-08-28T12:27:23.079Z,22.74
2018-08-28T12:29:50.597Z,22.81
2018-08-28T12:32:18.155Z,22.95
2018-08-28T12:34:46.823Z,22.99
2018-08-28T12:37:14.423Z,22.85
2018-08-28T12:39:41.999Z,23.03
2018-08-28T12:42:09.530Z,22.91
2018-08-28T12:44:37.088Z,22.66
2018-08-28T12:47:04.648Z,22.69
2018-08-28T12:49:32.499Z,22.87
2018-08-28T12:52:00.282Z,22.93
2018-08-28T12:54:28.013Z,22.99
2018-08-28T12:56:55.621Z,23.09
2018-08-28T12:59:24.195Z,23.10
2018-08-28T13:01:51.973Z,23.15
2018-08-28T13:04:19.496Z,23.20
2018-08-28T13:06:47.203Z,23.14
2018-08-28T13:09:15.014Z,23.20
2018-08-28T13:11:42.814Z,22.98
2018-08-28T13:14:10.458Z,23.20
2018-08-28T13:16:37.959Z,23.22
2018-08-28T13:19:05.742Z,23.10
2018-08-28T13:21:33.455Z,23.22
2018-08-28T13:24:00.977Z,23.25
2018-08-28T13:26:28.739Z,23.41
2018-08-28T13:28:56.507Z,23.33
2018-08-28T13:31:25.267Z,23.45
2018-08-28T13:33:52.926Z,23.13
2018-08-28T13:36:20.721Z,23.53
2018-08-28T13:38:48.253Z,23.09
2018-08-28T13:41:17.760Z,23.45
2018-08-28T13:43:45.329Z,23.49
2018-08-28T13:46:13.038Z,23.47
2018-08-28T13:48:41.399Z,23.76
2018-08-28T13:51:09.118Z,23.78
2018-08-28T13:53:37.012Z,23.94
2018-08-28T13:56:04.575Z,23.98
2018-08-28T13:58:32.133Z,23.69
2018-08-28T14:00:59.930Z,23.69
2018-08-28T14:03:28.576Z,23.75
2018-08-28T14:05:56.228Z,23.77
2018-08-28T14:08:23.789Z,23.84
2018-08-28T14:10:51.364Z,23.94
2018-08-28T14:13:19.051Z,24.09
2018-08-28T14:15:46.905Z,24.15
2018-08-28T14:18:14.485Z,24.32
2018-08-28T14:20:42.017Z,24.15
2018-08-28T14:23:09.811Z,24.24
2018-08-28T14:25:37.398Z,24.17
2018-08-28T14:28:05.328Z,24.09
2018-08-28T14:30:32.947Z,24.25
2018-08-28T14:33:00.521Z,24.16
2018-08-28T14:35:28.318Z,24.17
2018-08-28T14:37:55.901Z,24.40
2018-08-28T14:40:23.487Z,24.43
2018-08-28T14:42:51.014Z,24.54
2018-08-28T14:45:18.607Z,24.63
2018-08-28T14:47:46.207Z,24.70
2018-08-28T14:50:14.014Z,24.65
2018-08-28T14:52:41.558Z,24.73
2018-08-28T15:20:15.611Z,24.52
2018-08-28T15:22:43.141Z,24.58
2018-08-28T15:25:10.728Z,24.60
2018-08-28T15:31:14.387Z,24.87
2018-08-28T15:33:41.912Z,24.93
2018-08-28T15:36:09.456Z,24.95
2018-08-28T15:38:37.150Z,24.98
2018-08-28T15:41:04.713Z,25.16
2018-08-28T15:43:32.242Z,25.17
2018-08-28T15:45:59.808Z,25.35
2018-08-28T15:48:27.347Z,25.42
2018-08-28T15:50:55.001Z,25.36
2018-08-28T15:53:22.586Z,25.41
2018-08-28T15:55:50.621Z,25.37
2018-08-28T15:58:18.313Z,25.62
2018-08-28T16:00:45.831Z,25.62
2018-08-28T16:43:08.709Z,24.92
2018-08-28T16:45:36.256Z,24.97
2018-08-28T16:48:03.831Z,25.02
2018-08-28T16:50:31.470Z,25.11
2018-08-28T16:52:59.110Z,25.23
2018-08-28T16:55:26.847Z,25.20
2018-08-28T16:57:54.904Z,25.39
2018-08-28T17:00:22.549Z,25.42
2018-08-28T17:02:50.114Z,25.45
2018-08-28T17:05:17.767Z,25.59
2018-08-28T17:07:45.442Z,25.63
2018-08-28T17:10:12.978Z,25.64
2018-08-28T17:12:41.380Z,25.61
2018-08-28T17:15:08.999Z,25.59
2018-08-28T17:17:36.470Z,25.50
2018-08-28T17:20:04.101Z,25.46
2018-08-28T17:22:31.662Z,25.43
2018-08-28T17:24:59.305Z,25.37
2018-08-28T17:27:27.033Z,25.30
2018-08-28T17:29:54.610Z,25.23
2018-08-28T17:32:22.346Z,25.13
2018-08-28T17:34:49.904Z,25.01
2018-08-28T17:37:17.509Z,24.91
2018-08-28T17:39:45.059Z,24.81
2018-08-28T17:42:12.640Z,24.76
2018-08-28T17:44:41.402Z,24.75
2018-08-28T17:47:08.910Z,24.74
2018-08-28T17:49:36.697Z,24.69
2018-08-28T17:52:04.388Z,24.64
2018-08-28T17:54:32.036Z,24.55
2018-08-28T17:56:59.571Z,24.43
2018-08-28T17:59:27.152Z,24.38
2018-08-28T18:01:54.684Z,24.26
2018-08-28T18:04:22.238Z,24.21
2018-08-28T18:06:49.788Z,24.11
2018-08-28T18:09:17.327Z,24.08
2018-08-28T18:11:45.005Z,23.96
2018-08-28T18:14:12.587Z,23.83
2018-08-28T18:16:40.273Z,23.71
2018-08-28T18:19:07.835Z,23.58
2018-08-28T18:21:35.406Z,23.56
2018-08-28T18:24:02.951Z,23.49
2018-08-28T18:26:30.537Z,23.38
2018-08-28T18:28:58.103Z,23.33
2018-08-28T18:31:25.660Z,23.35
2018-08-28T18:35:26.717Z,23.24
2018-08-28T18:52:02.460Z,22.67
2018-08-28T18:54:30.037Z,22.58
2018-08-28T18:56:57.594Z,22.66
2018-08-28T18:59:25.153Z,22.64
2018-08-28T19:01:52.729Z,22.61
2018-08-28T19:04:21.158Z,22.57
2018-08-28T19:06:48.769Z,22.53
2018-08-28T19:09:16.410Z,22.49
2018-08-28T19:11:43.935Z,22.37
2018-08-28T19:14:11.685Z,22.18
2018-08-28T19:16:39.431Z,21.87
2018-08-28T19:19:06.979Z,21.84
2018-08-28T19:21:34.539Z,21.73
2018-08-28T19:24:02.070Z,21.63
2018-08-28T19:26:29.623Z,21.79
2018-08-28T19:28:57.150Z,21.98
2018-08-28T19:31:24.709Z,21.89
2018-08-28T19:33:52.228Z,21.93
2018-08-28T19:36:19.802Z,21.50
2018-08-28T19:38:47.378Z,21.34
2018-08-28T19:41:14.920Z,21.38
2018-08-28T19:43:42.489Z,21.39
2018-08-28T19:46:10.185Z,21.51
2018-08-28T19:48:37.742Z,21.58
2018-08-28T19:51:05.416Z,21.44
2018-08-28T19:53:33.040Z,21.37
2018-08-28T19:56:00.781Z,21.37
2018-08-28T19:58:28.503Z,21.25
2018-08-28T20:00:56.262Z,21.54
2018-08-28T20:03:23.840Z,21.69
2018-08-28T20:05:51.576Z,21.18
2018-08-28T20:08:19.175Z,20.98
2018-08-28T20:10:46.746Z,20.78
2018-08-28T20:13:14.388Z,20.88
2018-08-28T20:15:41.905Z,20.98
2018-08-28T20:18:10.949Z,21.10
2018-08-28T20:20:49.188Z,21.19
2018-08-28T20:23:17.297Z,21.25
2018-08-28T20:25:45.299Z,21.20
2018-08-28T20:28:13.174Z,21.10
2018-08-28T20:30:41.237Z,21.02
2018-08-28T20:33:08.847Z,21.03
2018-08-28T20:35:36.426Z,21.10
2018-08-28T20:38:04.038Z,21.09
2018-08-28T20:40:31.587Z,20.93
2018-08-28T20:42:59.151Z,20.81
2018-08-28T20:45:26.733Z,20.99
2018-08-28T20:47:54.320Z,20.89
2018-08-28T20:50:21.873Z,21.00
2018-08-28T20:52:49.663Z,21.17
2018-08-28T20:55:17.181Z,20.88
2018-08-28T20:57:44.764Z,21.08
2018-08-28T21:00:12.427Z,20.85
2018-08-28T21:02:39.934Z,20.97
2018-08-28T21:05:07.637Z,21.10
2018-08-28T21:07:35.387Z,21.14
2018-08-28T21:10:02.960Z,21.04
2018-08-28T21:12:30.508Z,20.87
2018-08-28T21:14:58.086Z,20.67
2018-08-28T21:17:26.456Z,20.49
2018-08-28T21:19:54.918Z,20.51
2018-08-28T21:22:22.587Z,20.72
2018-08-28T21:24:50.355Z,20.74
2018-08-28T21:27:17.881Z,20.56
2018-08-28T21:29:45.643Z,20.66
2018-08-28T21:32:13.274Z,20.59
2018-08-28T21:34:40.817Z,20.54
2018-08-28T21:37:08.367Z,20.58
2018-08-28T21:39:35.927Z,20.26
2018-08-28T21:42:03.514Z,20.32
2018-08-28T21:44:31.049Z,20.16
2018-08-28T21:46:58.740Z,20.37
2018-08-28T21:49:27.251Z,20.47
2018-08-28T21:51:54.882Z,20.51
2018-08-28T21:54:23.509Z,20.59
2018-08-28T21:56:51.073Z,20.53
2018-08-28T21:59:18.807Z,20.60
2018-08-28T22:01:46.339Z,20.67
2018-08-28T22:04:13.896Z,20.62
2018-08-28T22:06:41.530Z,20.48
2018-08-28T22:09:09.998Z,20.52
2018-08-28T22:11:37.567Z,20.09
2018-08-28T22:14:05.099Z,20.41
2018-08-28T22:16:32.685Z,20.30
2018-08-28T22:19:00.218Z,20.30
2018-08-28T22:21:28.809Z,20.32
2018-08-28T22:23:56.379Z,20.31
2018-08-28T22:26:23.976Z,20.22
2018-08-28T22:28:51.524Z,20.29
2018-08-28T22:31:19.076Z,20.38
2018-08-28T22:33:46.639Z,20.47
2018-08-28T22:36:14.188Z,20.30
2018-08-28T22:38:41.752Z,20.33
2018-08-28T22:41:09.277Z,20.41
2018-08-28T22:43:36.864Z,20.52
2018-08-28T22:46:04.562Z,20.51
2018-08-28T22:48:32.107Z,20.51
2018-08-28T22:50:59.702Z,20.49
2018-08-28T22:53:27.927Z,20.50
2018-08-28T22:55:55.493Z,20.41
2018-08-28T22:58:23.011Z,20.48
2018-08-28T23:00:50.603Z,20.46
2018-08-28T23:03:18.295Z,20.40
2018-08-28T23:05:45.842Z,20.38
2018-08-28T23:08:13.533Z,20.26
2018-08-28T23:10:41.303Z,20.05
2018-08-28T23:13:08.985Z,19.64
2018-08-28T23:15:36.583Z,19.54
2018-08-28T23:18:04.233Z,19.44
2018-08-28T23:20:31.756Z,19.64
2018-08-28T23:23:02.925Z,19.77
2018-08-28T23:25:30.528Z,19.68
2018-08-28T23:27:58.123Z,19.76
2018-08-28T23:30:25.661Z,19.48
2018-08-28T23:32:53.324Z,19.64
2018-08-28T23:35:20.853Z,19.42
2018-08-28T23:37:48.398Z,19.23
2018-08-28T23:40:16.012Z,19.03
2018-08-28T23:42:43.611Z,18.90
2018-08-28T23:45:11.152Z,18.92
2018-08-28T23:47:38.673Z,18.92
2018-08-28T23:50:06.510Z,18.76
2018-08-28T23:52:34.051Z,18.95
2018-08-28T23:55:01.581Z,18.98
2018-08-28T23:57:29.151Z,18.85
2018-08-28T23:59:56.658Z,18.81
